Muzaffargarh Weather



Muzaffargarh's Current Weather

Temprature 45.162o clear sky

clear sky

Rain: 0 %

Min Temprature45.162o
Max Temprature45.162o
Humidity14
Wind Speed3.34 m/h
Sun Rise05:15:34
Sun Set19:20:12
Current Time: 26-Jun-2019 14:49:06
Lat/Lon: 30.08, 71.19




Muzaffargarh's Geo Location



Muzaffargarh's Weather Forecast

Time Overall Temp Min Temp Max Temp Humidity Wind Speed Rain
26-Jun-2019 (Wed)
17:00:00 scattered clouds 41.450 41.450 41.450 18 7.53 m/h 0 %
20:00:00 clear sky 39.950 39.947 39.950 19 2.95 m/h 0 %
23:00:00 clear sky 37.740 37.740 37.740 24 2.52 m/h 0 %
27-Jun-2019 (Thu)
02:00:00 clear sky 36.680 36.679 36.680 24 3.08 m/h 0 %
05:00:00 clear sky 35.665 35.665 35.665 32 6.12 m/h 0 %
08:00:00 clear sky 37.750 37.750 37.750 32 7.02 m/h 0 %
11:00:00 clear sky 44.274 44.274 44.274 19 6.53 m/h 0 %
14:00:00 clear sky 46.750 46.750 46.750 12 5.34 m/h 0 %
17:00:00 light rain 42.980 42.980 42.980 15 3.93 m/h 13 %
20:00:00 scattered clouds 39.994 39.994 39.994 19 6.32 m/h 0 %
23:00:00 few clouds 39.435 39.435 39.435 20 6.44 m/h 0 %
28-Jun-2019 (Fri)
02:00:00 clear sky 36.828 36.828 36.828 30 7.02 m/h 0 %
05:00:00 clear sky 33.728 33.728 33.728 44 7.06 m/h 0 %
08:00:00 clear sky 34.549 34.549 34.549 44 6.01 m/h 0 %
11:00:00 clear sky 41.425 41.425 41.425 25 5.47 m/h 0 %
14:00:00 clear sky 45.631 45.631 45.631 15 4.82 m/h 0 %
17:00:00 clear sky 45.850 45.850 45.850 14 5.96 m/h 0 %
20:00:00 clear sky 42.150 42.150 42.150 17 6.23 m/h 0 %
23:00:00 clear sky 39.872 39.872 39.872 21 5.27 m/h 0 %
29-Jun-2019 (Sat)
02:00:00 clear sky 37.072 37.072 37.072 31 7.76 m/h 0 %
05:00:00 clear sky 33.339 33.339 33.339 47 8.53 m/h 0 %
08:00:00 clear sky 34.037 34.037 34.037 47 7.9 m/h 0 %
11:00:00 clear sky 40.850 40.850 40.850 30 6.88 m/h 0 %
14:00:00 clear sky 46.650 46.650 46.650 13 6.25 m/h 0 %
17:00:00 clear sky 46.691 46.691 46.691 10 6.62 m/h 0 %
20:00:00 clear sky 42.450 42.450 42.450 14 6.36 m/h 0 %
23:00:00 clear sky 39.850 39.850 39.850 20 6.54 m/h 0 %
30-Jun-2019 (Sun)
02:00:00 clear sky 37.876 37.876 37.876 25 7.49 m/h 0 %
05:00:00 clear sky 33.732 33.732 33.732 50 9.34 m/h 0 %
08:00:00 clear sky 35.152 35.152 35.152 44 8.82 m/h 0 %
11:00:00 clear sky 41.018 41.018 41.018 28 8.05 m/h 0 %
14:00:00 clear sky 46.609 46.609 46.609 14 5.96 m/h 0 %
17:00:00 clear sky 46.950 46.950 46.950 12 5.46 m/h 0 %
20:00:00 clear sky 42.850 42.850 42.850 15 5.46 m/h 0 %
23:00:00 clear sky 40.350 40.350 40.350 20 6.64 m/h 0 %
01-Jul-2019 (Mon)
02:00:00 clear sky 37.450 37.450 37.450 38 8.25 m/h 0 %
05:00:00 clear sky 33.335 33.335 33.335 53 9.37 m/h 0 %
08:00:00 clear sky 35.650 35.650 35.650 42 8.74 m/h 0 %
11:00:00 clear sky 42.050 42.050 42.050 26 8.4 m/h 0 %
14:00:00 clear sky 47.450 47.450 47.450 13 6.74 m/h 0 %

Famous Cities (60)